sensor_id;sensor_type;location;lat;lon;timestamp;temperature;humidity
23116;DHT22;11727;52.134;5.052;2023-06-04T00:01:34;14.40;99.90
23116;DHT22;11727;52.134;5.052;2023-06-04T00:04:00;14.30;99.90
23116;DHT22;11727;52.134;5.052;2023-06-04T00:06:25;14.30;99.90
23116;DHT22;11727;52.134;5.052;2023-06-04T00:08:51;14.30;99.90
23116;DHT22;11727;52.134;5.052;2023-06-04T00:11:16;14.30;99.90
23116;DHT22;11727;52.134;5.052;2023-06-04T00:13:42;14.20;99.90
23116;DHT22;11727;52.134;5.052;2023-06-04T00:16:07;14.20;99.90
23116;DHT22;11727;52.134;5.052;2023-06-04T00:18:33;14.10;99.90
23116;DHT22;11727;52.134;5.052;2023-06-04T00:20:59;14.10;99.90
23116;DHT22;11727;52.134;5.052;2023-06-04T00:23:24;14.10;99.90
23116;DHT22;11727;52.134;5.052;2023-06-04T00:25:50;14.10;99.90
23116;DHT22;11727;52.134;5.052;2023-06-04T00:28:15;14.00;99.90
23116;DHT22;11727;52.134;5.052;2023-06-04T00:30:41;14.00;99.90
23116;DHT22;11727;52.134;5.052;2023-06-04T00:33:07;14.00;99.90
23116;DHT22;11727;52.134;5.052;2023-06-04T00:35:32;14.00;99.90
23116;DHT22;11727;52.134;5.052;2023-06-04T00:37:58;13.90;99.90
23116;DHT22;11727;52.134;5.052;2023-06-04T00:40:23;13.90;99.90
23116;DHT22;11727;52.134;5.052;2023-06-04T00:42:49;13.80;99.90
23116;DHT22;11727;52.134;5.052;2023-06-04T00:45:15;13.80;99.90
23116;DHT22;11727;52.134;5.052;2023-06-04T00:47:43;13.70;99.90
23116;DHT22;11727;52.134;5.052;2023-06-04T00:50:09;13.70;99.90
23116;DHT22;11727;52.134;5.052;2023-06-04T00:52:35;13.70;99.90
23116;DHT22;11727;52.134;5.052;2023-06-04T00:55:01;13.70;99.90
23116;DHT22;11727;52.134;5.052;2023-06-04T00:57:27;13.60;99.90
23116;DHT22;11727;52.134;5.052;2023-06-04T00:59:53;13.60;99.90
23116;DHT22;11727;52.134;5.052;2023-06-04T01:02:21;13.50;99.90
23116;DHT22;11727;52.134;5.052;2023-06-04T01:05:06;13.50;99.90
23116;DHT22;11727;52.134;5.052;2023-06-04T01:07:36;13.40;99.90
23116;DHT22;11727;52.134;5.052;2023-06-04T01:10:01;13.40;99.90
23116;DHT22;11727;52.134;5.052;2023-06-04T01:12:27;13.40;99.90
23116;DHT22;11727;52.134;5.052;2023-06-04T01:14:52;13.40;99.90
23116;DHT22;11727;52.134;5.052;2023-06-04T01:17:25;13.30;99.90
23116;DHT22;11727;52.134;5.052;2023-06-04T01:25:48;13.20;99.90
23116;DHT22;11727;52.134;5.052;2023-06-04T01:28:15;13.20;99.90
23116;DHT22;11727;52.134;5.052;2023-06-04T01:30:44;13.20;99.90
23116;DHT22;11727;52.134;5.052;2023-06-04T01:33:16;13.10;99.90
23116;DHT22;11727;52.134;5.052;2023-06-04T01:35:42;13.10;99.90
23116;DHT22;11727;52.134;5.052;2023-06-04T01:38:07;13.10;99.90
23116;DHT22;11727;52.134;5.052;2023-06-04T01:40:33;13.10;99.90
23116;DHT22;11727;52.134;5.052;2023-06-04T01:42:59;13.10;99.90
23116;DHT22;11727;52.134;5.052;2023-06-04T01:45:26;13.00;99.90
23116;DHT22;11727;52.134;5.052;2023-06-04T01:47:52;13.00;99.90
23116;DHT22;11727;52.134;5.052;2023-06-04T01:50:18;13.00;99.90
23116;DHT22;11727;52.134;5.052;2023-06-04T01:52:44;13.00;99.90
23116;DHT22;11727;52.134;5.052;2023-06-04T01:55:12;13.00;99.90
23116;DHT22;11727;52.134;5.052;2023-06-04T01:57:43;13.00;99.90
23116;DHT22;11727;52.134;5.052;2023-06-04T02:00:16;13.00;99.90
23116;DHT22;11727;52.134;5.052;2023-06-04T02:02:44;12.90;99.90
23116;DHT22;11727;52.134;5.052;2023-06-04T02:05:11;12.90;99.90
23116;DHT22;11727;52.134;5.052;2023-06-04T02:07:38;12.90;99.90
23116;DHT22;11727;52.134;5.052;2023-06-04T02:10:11;12.90;99.90
23116;DHT22;11727;52.134;5.052;2023-06-04T02:12:39;12.90;99.90
23116;DHT22;11727;52.134;5.052;2023-06-04T02:15:05;12.80;99.90
23116;DHT22;11727;52.134;5.052;2023-06-04T02:17:32;12.80;99.90
23116;DHT22;11727;52.134;5.052;2023-06-04T02:19:58;12.80;99.90
23116;DHT22;11727;52.134;5.052;2023-06-04T02:22:24;12.80;99.90
23116;DHT22;11727;52.134;5.052;2023-06-04T02:24:50;12.70;99.90
23116;DHT22;11727;52.134;5.052;2023-06-04T02:27:16;12.70;99.90
23116;DHT22;11727;52.134;5.052;2023-06-04T02:29:42;12.70;99.90
23116;DHT22;11727;52.134;5.052;2023-06-04T02:32:09;12.70;99.90
23116;DHT22;11727;52.134;5.052;2023-06-04T02:34:34;12.60;99.90
23116;DHT22;11727;52.134;5.052;2023-06-04T02:37:00;12.70;99.90
23116;DHT22;11727;52.134;5.052;2023-06-04T02:39:26;12.60;99.90
23116;DHT22;11727;52.134;5.052;2023-06-04T02:41:52;12.60;99.90
23116;DHT22;11727;52.134;5.052;2023-06-04T02:44:18;12.50;99.90
23116;DHT22;11727;52.134;5.052;2023-06-04T02:46:44;12.60;99.90
23116;DHT22;11727;52.134;5.052;2023-06-04T02:49:10;12.50;99.90
23116;DHT22;11727;52.134;5.052;2023-06-04T02:51:48;12.40;99.90
23116;DHT22;11727;52.134;5.052;2023-06-04T02:54:13;12.40;99.90
23116;DHT22;11727;52.134;5.052;2023-06-04T02:56:39;12.40;99.90
23116;DHT22;11727;52.134;5.052;2023-06-04T02:59:06;12.40;99.90
23116;DHT22;11727;52.134;5.052;2023-06-04T03:01:34;12.40;99.90
23116;DHT22;11727;52.134;5.052;2023-06-04T03:04:01;12.40;99.90
23116;DHT22;11727;52.134;5.052;2023-06-04T03:06:29;12.40;99.90
23116;DHT22;11727;52.134;5.052;2023-06-04T03:08:55;12.30;99.90
23116;DHT22;11727;52.134;5.052;2023-06-04T03:11:21;12.30;99.90
23116;DHT22;11727;52.134;5.052;2023-06-04T03:13:47;12.30;99.90
23116;DHT22;11727;52.134;5.052;2023-06-04T03:16:13;12.20;99.90
23116;DHT22;11727;52.134;5.052;2023-06-04T03:18:40;12.30;99.90
23116;DHT22;11727;52.134;5.052;2023-06-04T03:21:07;12.20;99.90
23116;DHT22;11727;52.134;5.052;2023-06-04T03:23:34;12.10;99.90
23116;DHT22;11727;52.134;5.052;2023-06-04T03:26:01;12.10;99.90
23116;DHT22;11727;52.134;5.052;2023-06-04T03:28:27;12.10;99.90
23116;DHT22;11727;52.134;5.052;2023-06-04T03:30:53;12.10;99.90
23116;DHT22;11727;52.134;5.052;2023-06-04T03:33:18;12.10;99.90
23116;DHT22;11727;52.134;5.052;2023-06-04T03:35:44;12.10;99.90
23116;DHT22;11727;52.134;5.052;2023-06-04T03:38:10;12.10;99.90
23116;DHT22;11727;52.134;5.052;2023-06-04T03:40:36;12.00;99.90
23116;DHT22;11727;52.134;5.052;2023-06-04T03:43:02;12.00;99.90
23116;DHT22;11727;52.134;5.052;2023-06-04T03:45:29;12.00;99.90
23116;DHT22;11727;52.134;5.052;2023-06-04T03:47:55;12.00;99.90
23116;DHT22;11727;52.134;5.052;2023-06-04T03:50:20;12.00;99.90
23116;DHT22;11727;52.134;5.052;2023-06-04T03:52:47;12.00;99.90
23116;DHT22;11727;52.134;5.052;2023-06-04T03:55:13;12.00;99.90
23116;DHT22;11727;52.134;5.052;2023-06-04T03:57:39;12.00;99.90
23116;DHT22;11727;52.134;5.052;2023-06-04T04:00:06;12.00;99.90
23116;DHT22;11727;52.134;5.052;2023-06-04T04:02:32;12.00;99.90
23116;DHT22;11727;52.134;5.052;2023-06-04T04:04:57;12.00;99.90
23116;DHT22;11727;52.134;5.052;2023-06-04T04:07:23;12.00;99.90
23116;DHT22;11727;52.134;5.052;2023-06-04T04:09:51;12.00;99.90
23116;DHT22;11727;52.134;5.052;2023-06-04T04:12:16;12.00;99.90
23116;DHT22;11727;52.134;5.052;2023-06-04T04:14:42;12.00;99.90
23116;DHT22;11727;52.134;5.052;2023-06-04T04:17:08;12.00;99.90
23116;DHT22;11727;52.134;5.052;2023-06-04T04:19:33;12.00;99.90
23116;DHT22;11727;52.134;5.052;2023-06-04T04:21:59;12.00;99.90
23116;DHT22;11727;52.134;5.052;2023-06-04T04:24:26;12.00;99.90
23116;DHT22;11727;52.134;5.052;2023-06-04T04:26:52;12.00;99.90
23116;DHT22;11727;52.134;5.052;2023-06-04T04:29:19;12.00;99.90
23116;DHT22;11727;52.134;5.052;2023-06-04T04:31:49;12.00;99.90
23116;DHT22;11727;52.134;5.052;2023-06-04T04:34:15;12.00;99.90
23116;DHT22;11727;52.134;5.052;2023-06-04T04:36:40;12.10;99.90
23116;DHT22;11727;52.134;5.052;2023-06-04T04:39:06;12.10;99.90
23116;DHT22;11727;52.134;5.052;2023-06-04T04:41:32;12.10;99.90
23116;DHT22;11727;52.134;5.052;2023-06-04T04:44:04;12.20;99.90
23116;DHT22;11727;52.134;5.052;2023-06-04T04:46:30;12.20;99.90
23116;DHT22;11727;52.134;5.052;2023-06-04T04:48:56;12.20;99.90
23116;DHT22;11727;52.134;5.052;2023-06-04T04:51:22;12.30;99.90
23116;DHT22;11727;52.134;5.052;2023-06-04T04:53:47;12.40;99.90
23116;DHT22;11727;52.134;5.052;2023-06-04T04:56:13;12.40;99.90
23116;DHT22;11727;52.134;5.052;2023-06-04T04:58:39;12.50;99.90
23116;DHT22;11727;52.134;5.052;2023-06-04T05:01:04;12.60;99.90
23116;DHT22;11727;52.134;5.052;2023-06-04T05:03:30;12.70;99.90
23116;DHT22;11727;52.134;5.052;2023-06-04T05:05:56;12.70;99.90
23116;DHT22;11727;52.134;5.052;2023-06-04T05:08:21;12.80;99.90
23116;DHT22;11727;52.134;5.052;2023-06-04T05:10:47;12.80;99.90
23116;DHT22;11727;52.134;5.052;2023-06-04T05:13:13;12.90;99.90
23116;DHT22;11727;52.134;5.052;2023-06-04T05:15:38;13.00;99.90
23116;DHT22;11727;52.134;5.052;2023-06-04T05:18:07;13.10;99.90
23116;DHT22;11727;52.134;5.052;2023-06-04T05:20:33;13.10;99.90
23116;DHT22;11727;52.134;5.052;2023-06-04T05:23:00;13.20;99.90
23116;DHT22;11727;52.134;5.052;2023-06-04T05:25:27;13.30;99.90
23116;DHT22;11727;52.134;5.052;2023-06-04T05:27:55;13.40;99.90
23116;DHT22;11727;52.134;5.052;2023-06-04T05:30:21;13.50;99.90
23116;DHT22;11727;52.134;5.052;2023-06-04T05:32:47;13.60;99.90
23116;DHT22;11727;52.134;5.052;2023-06-04T05:35:12;13.70;99.90
23116;DHT22;11727;52.134;5.052;2023-06-04T05:37:38;13.70;99.90
23116;DHT22;11727;52.134;5.052;2023-06-04T05:40:06;13.80;99.90
23116;DHT22;11727;52.134;5.052;2023-06-04T05:42:32;13.90;99.90
23116;DHT22;11727;52.134;5.052;2023-06-04T05:44:58;14.00;99.90
23116;DHT22;11727;52.134;5.052;2023-06-04T05:47:23;14.10;99.90
23116;DHT22;11727;52.134;5.052;2023-06-04T05:49:49;14.20;99.90
23116;DHT22;11727;52.134;5.052;2023-06-04T05:52:15;14.30;99.90
23116;DHT22;11727;52.134;5.052;2023-06-04T05:54:41;14.40;99.90
23116;DHT22;11727;52.134;5.052;2023-06-04T05:57:06;14.40;99.90
23116;DHT22;11727;52.134;5.052;2023-06-04T05:59:32;14.50;99.90
23116;DHT22;11727;52.134;5.052;2023-06-04T06:01:57;14.70;99.90
23116;DHT22;11727;52.134;5.052;2023-06-04T06:04:24;14.80;99.90
23116;DHT22;11727;52.134;5.052;2023-06-04T06:06:49;14.80;99.90
23116;DHT22;11727;52.134;5.052;2023-06-04T06:09:15;14.90;99.90
23116;DHT22;11727;52.134;5.052;2023-06-04T06:11:42;15.00;99.90
23116;DHT22;11727;52.134;5.052;2023-06-04T06:14:07;15.20;99.90
23116;DHT22;11727;52.134;5.052;2023-06-04T06:16:33;15.20;99.90
23116;DHT22;11727;52.134;5.052;2023-06-04T06:19:00;15.30;99.90
23116;DHT22;11727;52.134;5.052;2023-06-04T06:21:26;15.40;99.90
23116;DHT22;11727;52.134;5.052;2023-06-04T06:23:53;15.50;99.90
23116;DHT22;11727;52.134;5.052;2023-06-04T06:26:19;15.60;99.90
23116;DHT22;11727;52.134;5.052;2023-06-04T06:28:44;15.70;99.90
23116;DHT22;11727;52.134;5.052;2023-06-04T06:31:10;15.80;99.90
23116;DHT22;11727;52.134;5.052;2023-06-04T06:33:36;15.90;99.90
23116;DHT22;11727;52.134;5.052;2023-06-04T06:36:10;16.00;99.90
23116;DHT22;11727;52.134;5.052;2023-06-04T06:38:37;16.10;99.90
23116;DHT22;11727;52.134;5.052;2023-06-04T06:41:03;16.20;99.90
23116;DHT22;11727;52.134;5.052;2023-06-04T06:43:28;16.20;99.90
23116;DHT22;11727;52.134;5.052;2023-06-04T06:45:54;16.40;99.90
23116;DHT22;11727;52.134;5.052;2023-06-04T06:48:20;16.50;99.90
23116;DHT22;11727;52.134;5.052;2023-06-04T06:50:46;16.60;99.90
23116;DHT22;11727;52.134;5.052;2023-06-04T06:53:11;16.80;99.90
23116;DHT22;11727;52.134;5.052;2023-06-04T06:55:37;16.90;99.90
23116;DHT22;11727;52.134;5.052;2023-06-04T06:58:02;17.00;99.90
23116;DHT22;11727;52.134;5.052;2023-06-04T07:00:28;17.10;99.90
23116;DHT22;11727;52.134;5.052;2023-06-04T07:02:54;17.20;99.90
23116;DHT22;11727;52.134;5.052;2023-06-04T07:05:19;17.30;99.90
23116;DHT22;11727;52.134;5.052;2023-06-04T07:07:46;17.50;99.90
23116;DHT22;11727;52.134;5.052;2023-06-04T07:10:12;17.60;99.90
23116;DHT22;11727;52.134;5.052;2023-06-04T07:12:39;17.70;99.90
23116;DHT22;11727;52.134;5.052;2023-06-04T07:15:08;17.80;99.90
23116;DHT22;11727;52.134;5.052;2023-06-04T07:17:34;17.70;99.90
23116;DHT22;11727;52.134;5.052;2023-06-04T07:20:00;17.80;99.90
23116;DHT22;11727;52.134;5.052;2023-06-04T07:22:26;17.90;99.90
23116;DHT22;11727;52.134;5.052;2023-06-04T07:24:52;18.00;99.90
23116;DHT22;11727;52.134;5.052;2023-06-04T07:27:19;18.10;99.90
23116;DHT22;11727;52.134;5.052;2023-06-04T07:29:45;18.10;99.90
23116;DHT22;11727;52.134;5.052;2023-06-04T07:32:11;18.20;99.90
23116;DHT22;11727;52.134;5.052;2023-06-04T07:34:38;18.20;99.90
23116;DHT22;11727;52.134;5.052;2023-06-04T07:37:04;18.20;99.90
23116;DHT22;11727;52.134;5.052;2023-06-04T07:39:30;18.40;99.90
23116;DHT22;11727;52.134;5.052;2023-06-04T07:41:56;18.50;99.90
23116;DHT22;11727;52.134;5.052;2023-06-04T07:44:21;18.60;99.90
23116;DHT22;11727;52.134;5.052;2023-06-04T07:46:47;18.70;99.90
23116;DHT22;11727;52.134;5.052;2023-06-04T07:49:14;18.80;99.90
23116;DHT22;11727;52.134;5.052;2023-06-04T07:51:39;18.90;99.90
23116;DHT22;11727;52.134;5.052;2023-06-04T07:54:05;19.10;99.90
23116;DHT22;11727;52.134;5.052;2023-06-04T07:56:30;19.20;99.90
23116;DHT22;11727;52.134;5.052;2023-06-04T07:58:56;19.20;99.90
23116;DHT22;11727;52.134;5.052;2023-06-04T08:01:22;19.20;99.90
23116;DHT22;11727;52.134;5.052;2023-06-04T08:03:49;19.30;99.90
23116;DHT22;11727;52.134;5.052;2023-06-04T08:06:15;19.50;99.90
23116;DHT22;11727;52.134;5.052;2023-06-04T08:08:44;19.60;99.90
23116;DHT22;11727;52.134;5.052;2023-06-04T08:11:11;19.70;99.90
23116;DHT22;11727;52.134;5.052;2023-06-04T08:13:37;19.90;99.90
23116;DHT22;11727;52.134;5.052;2023-06-04T08:16:04;20.00;99.90
23116;DHT22;11727;52.134;5.052;2023-06-04T08:18:30;20.10;99.90
23116;DHT22;11727;52.134;5.052;2023-06-04T08:20:55;20.40;99.90
23116;DHT22;11727;52.134;5.052;2023-06-04T08:23:21;20.30;99.90
23116;DHT22;11727;52.134;5.052;2023-06-04T08:25:47;20.40;99.90
23116;DHT22;11727;52.134;5.052;2023-06-04T08:28:16;20.40;99.90
23116;DHT22;11727;52.134;5.052;2023-06-04T08:30:45;20.50;99.90
23116;DHT22;11727;52.134;5.052;2023-06-04T08:33:11;20.60;99.90
23116;DHT22;11727;52.134;5.052;2023-06-04T08:35:37;20.70;99.90
23116;DHT22;11727;52.134;5.052;2023-06-04T08:38:02;20.80;99.90
23116;DHT22;11727;52.134;5.052;2023-06-04T08:40:28;20.90;99.90
23116;DHT22;11727;52.134;5.052;2023-06-04T08:42:55;21.00;99.90
23116;DHT22;11727;52.134;5.052;2023-06-04T08:45:24;21.20;99.90
23116;DHT22;11727;52.134;5.052;2023-06-04T08:47:51;21.40;99.90
23116;DHT22;11727;52.134;5.052;2023-06-04T08:50:19;21.40;99.90
23116;DHT22;11727;52.134;5.052;2023-06-04T08:52:45;21.30;99.90
23116;DHT22;11727;52.134;5.052;2023-06-04T08:55:11;21.40;99.90
23116;DHT22;11727;52.134;5.052;2023-06-04T08:57:39;21.40;99.90
23116;DHT22;11727;52.134;5.052;2023-06-04T09:00:06;21.50;99.90
23116;DHT22;11727;52.134;5.052;2023-06-04T09:02:36;21.60;99.90
23116;DHT22;11727;52.134;5.052;2023-06-04T09:05:05;21.70;99.90
23116;DHT22;11727;52.134;5.052;2023-06-04T09:07:39;21.70;99.90
23116;DHT22;11727;52.134;5.052;2023-06-04T09:10:09;21.90;99.90
23116;DHT22;11727;52.134;5.052;2023-06-04T09:12:36;22.00;99.90
23116;DHT22;11727;52.134;5.052;2023-06-04T09:15:03;22.00;99.90
23116;DHT22;11727;52.134;5.052;2023-06-04T09:17:29;22.10;99.90
23116;DHT22;11727;52.134;5.052;2023-06-04T09:19:54;22.10;99.90
23116;DHT22;11727;52.134;5.052;2023-06-04T09:22:34;22.10;99.90
23116;DHT22;11727;52.134;5.052;2023-06-04T09:25:02;22.10;99.90
23116;DHT22;11727;52.134;5.052;2023-06-04T09:27:37;22.20;99.90
23116;DHT22;11727;52.134;5.052;2023-06-04T09:30:03;22.30;99.90
23116;DHT22;11727;52.134;5.052;2023-06-04T09:32:30;22.40;99.90
23116;DHT22;11727;52.134;5.052;2023-06-04T09:35:14;22.50;99.90
23116;DHT22;11727;52.134;5.052;2023-06-04T09:37:40;22.50;99.90
23116;DHT22;11727;52.134;5.052;2023-06-04T09:40:08;22.40;99.90
23116;DHT22;11727;52.134;5.052;2023-06-04T09:42:48;22.60;99.90
23116;DHT22;11727;52.134;5.052;2023-06-04T09:45:35;22.70;99.90
23116;DHT22;11727;52.134;5.052;2023-06-04T09:48:02;22.80;99.90
23116;DHT22;11727;52.134;5.052;2023-06-04T09:50:33;22.90;99.90
23116;DHT22;11727;52.134;5.052;2023-06-04T09:53:14;22.90;99.90
23116;DHT22;11727;52.134;5.052;2023-06-04T09:55:41;23.10;99.90
23116;DHT22;11727;52.134;5.052;2023-06-04T09:58:07;23.10;99.90
23116;DHT22;11727;52.134;5.052;2023-06-04T10:00:33;23.20;99.90
23116;DHT22;11727;52.134;5.052;2023-06-04T10:03:02;23.20;99.90
23116;DHT22;11727;52.134;5.052;2023-06-04T10:05:32;23.20;99.90
23116;DHT22;11727;52.134;5.052;2023-06-04T10:08:03;23.20;99.90
23116;DHT22;11727;52.134;5.052;2023-06-04T10:10:34;23.30;99.90
23116;DHT22;11727;52.134;5.052;2023-06-04T10:13:05;23.40;99.90
23116;DHT22;11727;52.134;5.052;2023-06-04T10:15:32;23.40;99.90
23116;DHT22;11727;52.134;5.052;2023-06-04T10:17:59;23.50;99.90
23116;DHT22;11727;52.134;5.052;2023-06-04T10:20:27;23.50;99.90
23116;DHT22;11727;52.134;5.052;2023-06-04T10:22:53;23.50;99.90
23116;DHT22;11727;52.134;5.052;2023-06-04T10:25:20;23.60;99.90
23116;DHT22;11727;52.134;5.052;2023-06-04T10:27:46;23.50;99.90
23116;DHT22;11727;52.134;5.052;2023-06-04T10:30:12;23.40;99.90
23116;DHT22;11727;52.134;5.052;2023-06-04T10:32:38;23.30;99.90
23116;DHT22;11727;52.134;5.052;2023-06-04T10:35:05;23.40;99.90
23116;DHT22;11727;52.134;5.052;2023-06-04T10:37:33;23.30;99.90
23116;DHT22;11727;52.134;5.052;2023-06-04T10:39:58;23.30;99.90
23116;DHT22;11727;52.134;5.052;2023-06-04T10:42:24;23.30;99.90
23116;DHT22;11727;52.134;5.052;2023-06-04T10:44:52;23.30;99.90
23116;DHT22;11727;52.134;5.052;2023-06-04T10:47:24;23.20;99.90
23116;DHT22;11727;52.134;5.052;2023-06-04T10:49:54;23.10;99.90
23116;DHT22;11727;52.134;5.052;2023-06-04T10:52:21;23.00;99.90
23116;DHT22;11727;52.134;5.052;2023-06-04T10:54:47;22.90;99.90
23116;DHT22;11727;52.134;5.052;2023-06-04T10:57:19;22.90;99.90
23116;DHT22;11727;52.134;5.052;2023-06-04T10:59:58;22.90;99.90
23116;DHT22;11727;52.134;5.052;2023-06-04T11:02:25;22.90;99.90
23116;DHT22;11727;52.134;5.052;2023-06-04T11:05:04;22.80;99.90
23116;DHT22;11727;52.134;5.052;2023-06-04T11:07:42;22.80;99.90
23116;DHT22;11727;52.134;5.052;2023-06-04T11:10:12;22.60;99.90
23116;DHT22;11727;52.134;5.052;2023-06-04T11:12:49;22.60;99.90
23116;DHT22;11727;52.134;5.052;2023-06-04T11:15:18;22.60;99.90
23116;DHT22;11727;52.134;5.052;2023-06-04T11:17:55;22.60;99.90
23116;DHT22;11727;52.134;5.052;2023-06-04T11:20:22;22.50;99.90
23116;DHT22;11727;52.134;5.052;2023-06-04T11:23:06;22.60;99.90
23116;DHT22;11727;52.134;5.052;2023-06-04T11:25:31;22.60;99.90
23116;DHT22;11727;52.134;5.052;2023-06-04T11:27:58;22.60;99.90
23116;DHT22;11727;52.134;5.052;2023-06-04T11:30:25;22.50;99.90
23116;DHT22;11727;52.134;5.052;2023-06-04T11:33:00;22.50;99.90
23116;DHT22;11727;52.134;5.052;2023-06-04T11:35:26;22.50;99.90
23116;DHT22;11727;52.134;5.052;2023-06-04T11:37:56;22.50;99.90
23116;DHT22;11727;52.134;5.052;2023-06-04T11:40:23;22.40;99.90
23116;DHT22;11727;52.134;5.052;2023-06-04T11:42:49;22.40;99.90
23116;DHT22;11727;52.134;5.052;2023-06-04T11:45:17;22.40;99.90
23116;DHT22;11727;52.134;5.052;2023-06-04T11:47:53;22.30;99.90
23116;DHT22;11727;52.134;5.052;2023-06-04T11:50:19;22.20;99.90
23116;DHT22;11727;52.134;5.052;2023-06-04T11:52:46;22.30;99.90
23116;DHT22;11727;52.134;5.052;2023-06-04T11:55:12;22.20;99.90
23116;DHT22;11727;52.134;5.052;2023-06-04T11:57:39;22.10;99.90
23116;DHT22;11727;52.134;5.052;2023-06-04T12:00:08;22.10;99.90
23116;DHT22;11727;52.134;5.052;2023-06-04T12:02:37;21.90;99.90
23116;DHT22;11727;52.134;5.052;2023-06-04T12:05:13;21.80;99.90
23116;DHT22;11727;52.134;5.052;2023-06-04T12:07:39;21.90;99.90
23116;DHT22;11727;52.134;5.052;2023-06-04T12:10:09;21.90;99.90
23116;DHT22;11727;52.134;5.052;2023-06-04T12:12:34;22.00;99.90
23116;DHT22;11727;52.134;5.052;2023-06-04T12:15:00;22.00;99.90
23116;DHT22;11727;52.134;5.052;2023-06-04T12:17:26;22.00;99.90
23116;DHT22;11727;52.134;5.052;2023-06-04T12:19:52;22.10;99.90
23116;DHT22;11727;52.134;5.052;2023-06-04T12:22:18;22.30;99.90
23116;DHT22;11727;52.134;5.052;2023-06-04T12:27:14;22.30;99.90
23116;DHT22;11727;52.134;5.052;2023-06-04T12:29:40;22.30;99.90
23116;DHT22;11727;52.134;5.052;2023-06-04T12:32:09;22.30;99.90
23116;DHT22;11727;52.134;5.052;2023-06-04T12:34:37;22.30;99.90
23116;DHT22;11727;52.134;5.052;2023-06-04T12:37:03;22.40;99.90
23116;DHT22;11727;52.134;5.052;2023-06-04T12:39:29;22.30;99.90
23116;DHT22;11727;52.134;5.052;2023-06-04T12:41:55;22.40;99.90
23116;DHT22;11727;52.134;5.052;2023-06-04T12:44:21;22.30;99.90
23116;DHT22;11727;52.134;5.052;2023-06-04T12:46:46;22.30;99.90
23116;DHT22;11727;52.134;5.052;2023-06-04T12:49:12;22.30;99.90
23116;DHT22;11727;52.134;5.052;2023-06-04T12:51:38;22.20;99.90
23116;DHT22;11727;52.134;5.052;2023-06-04T12:54:04;22.10;99.90
23116;DHT22;11727;52.134;5.052;2023-06-04T12:56:30;22.00;99.90
23116;DHT22;11727;52.134;5.052;2023-06-04T12:58:55;22.10;99.90
23116;DHT22;11727;52.134;5.052;2023-06-04T13:01:21;22.10;99.90
23116;DHT22;11727;52.134;5.052;2023-06-04T13:03:47;22.10;99.90
23116;DHT22;11727;52.134;5.052;2023-06-04T13:06:12;22.10;99.90
23116;DHT22;11727;52.134;5.052;2023-06-04T13:08:38;22.00;99.90
23116;DHT22;11727;52.134;5.052;2023-06-04T13:11:04;21.90;99.90
23116;DHT22;11727;52.134;5.052;2023-06-04T13:13:31;21.80;99.90
23116;DHT22;11727;52.134;5.052;2023-06-04T13:15:56;21.90;99.90
23116;DHT22;11727;52.134;5.052;2023-06-04T13:18:22;21.90;99.90
23116;DHT22;11727;52.134;5.052;2023-06-04T13:20:48;21.90;99.90
23116;DHT22;11727;52.134;5.052;2023-06-04T13:23:16;21.90;99.90
23116;DHT22;11727;52.134;5.052;2023-06-04T13:25:42;22.10;99.90
23116;DHT22;11727;52.134;5.052;2023-06-04T13:28:08;22.10;99.90
23116;DHT22;11727;52.134;5.052;2023-06-04T13:30:36;22.10;99.90
23116;DHT22;11727;52.134;5.052;2023-06-04T13:33:03;22.20;99.90
23116;DHT22;11727;52.134;5.052;2023-06-04T13:35:28;22.20;99.90
23116;DHT22;11727;52.134;5.052;2023-06-04T13:37:54;22.10;99.90
23116;DHT22;11727;52.134;5.052;2023-06-04T13:40:20;22.00;99.90
23116;DHT22;11727;52.134;5.052;2023-06-04T13:42:46;22.20;99.90
23116;DHT22;11727;52.134;5.052;2023-06-04T13:45:11;22.10;99.90
23116;DHT22;11727;52.134;5.052;2023-06-04T13:47:37;22.20;99.90
23116;DHT22;11727;52.134;5.052;2023-06-04T13:50:03;22.30;99.90
23116;DHT22;11727;52.134;5.052;2023-06-04T13:52:29;22.40;99.90
23116;DHT22;11727;52.134;5.052;2023-06-04T13:54:55;22.40;99.90
23116;DHT22;11727;52.134;5.052;2023-06-04T13:57:21;22.50;99.90
23116;DHT22;11727;52.134;5.052;2023-06-04T13:59:48;22.50;99.90
23116;DHT22;11727;52.134;5.052;2023-06-04T14:02:14;22.50;99.90
23116;DHT22;11727;52.134;5.052;2023-06-04T14:04:40;22.50;99.90
23116;DHT22;11727;52.134;5.052;2023-06-04T14:07:06;22.50;99.90
23116;DHT22;11727;52.134;5.052;2023-06-04T14:09:31;22.60;99.90
23116;DHT22;11727;52.134;5.052;2023-06-04T14:11:58;22.60;99.90
23116;DHT22;11727;52.134;5.052;2023-06-04T14:14:23;22.50;99.90
23116;DHT22;11727;52.134;5.052;2023-06-04T14:16:49;22.50;99.90
23116;DHT22;11727;52.134;5.052;2023-06-04T14:19:15;22.40;99.90
23116;DHT22;11727;52.134;5.052;2023-06-04T14:21:41;22.40;99.90
23116;DHT22;11727;52.134;5.052;2023-06-04T14:24:08;22.40;99.90
23116;DHT22;11727;52.134;5.052;2023-06-04T14:26:34;22.40;99.90
23116;DHT22;11727;52.134;5.052;2023-06-04T14:29:01;22.30;99.90
23116;DHT22;11727;52.134;5.052;2023-06-04T14:31:26;22.40;99.90
23116;DHT22;11727;52.134;5.052;2023-06-04T14:33:52;22.40;99.90
23116;DHT22;11727;52.134;5.052;2023-06-04T14:36:18;22.50;99.90
23116;DHT22;11727;52.134;5.052;2023-06-04T14:38:44;22.50;99.90
23116;DHT22;11727;52.134;5.052;2023-06-04T14:41:10;22.50;99.90
23116;DHT22;11727;52.134;5.052;2023-06-04T14:43:36;22.40;99.90
23116;DHT22;11727;52.134;5.052;2023-06-04T14:46:01;22.40;99.90
23116;DHT22;11727;52.134;5.052;2023-06-04T14:48:27;22.40;99.90
23116;DHT22;11727;52.134;5.052;2023-06-04T14:50:52;22.40;99.90
23116;DHT22;11727;52.134;5.052;2023-06-04T14:53:20;22.40;99.90
23116;DHT22;11727;52.134;5.052;2023-06-04T14:55:45;22.30;99.90
23116;DHT22;11727;52.134;5.052;2023-06-04T14:58:15;22.20;99.90
23116;DHT22;11727;52.134;5.052;2023-06-04T15:00:42;22.00;99.90
23116;DHT22;11727;52.134;5.052;2023-06-04T15:03:07;22.10;99.90
23116;DHT22;11727;52.134;5.052;2023-06-04T15:05:33;21.90;99.90
23116;DHT22;11727;52.134;5.052;2023-06-04T15:07:59;21.90;99.90
23116;DHT22;11727;52.134;5.052;2023-06-04T15:10:25;22.00;99.90
23116;DHT22;11727;52.134;5.052;2023-06-04T15:12:55;22.20;99.90
23116;DHT22;11727;52.134;5.052;2023-06-04T15:15:20;22.30;99.90
23116;DHT22;11727;52.134;5.052;2023-06-04T15:17:47;22.40;99.90
23116;DHT22;11727;52.134;5.052;2023-06-04T15:20:12;22.50;99.90
23116;DHT22;11727;52.134;5.052;2023-06-04T15:22:38;22.50;99.90
23116;DHT22;11727;52.134;5.052;2023-06-04T15:25:04;22.40;99.90
23116;DHT22;11727;52.134;5.052;2023-06-04T15:27:30;22.50;99.90
23116;DHT22;11727;52.134;5.052;2023-06-04T15:29:55;22.50;99.90
23116;DHT22;11727;52.134;5.052;2023-06-04T15:32:21;22.50;99.90
23116;DHT22;11727;52.134;5.052;2023-06-04T15:34:47;22.40;99.90
23116;DHT22;11727;52.134;5.052;2023-06-04T15:37:13;22.40;99.90